sensor_id;sensor_type;location;lat;lon;timestamp;temperature;humidity
13591;DHT22;6866;50.778;7.206;2023-12-20T00:00:55;8.50;99.90
13591;DHT22;6866;50.778;7.206;2023-12-20T00:03:21;8.60;99.90
13591;DHT22;6866;50.778;7.206;2023-12-20T00:05:47;8.50;99.90
13591;DHT22;6866;50.778;7.206;2023-12-20T00:08:13;8.60;99.90
13591;DHT22;6866;50.778;7.206;2023-12-20T00:10:38;8.60;99.90
13591;DHT22;6866;50.778;7.206;2023-12-20T00:13:04;8.60;99.90
13591;DHT22;6866;50.778;7.206;2023-12-20T00:15:30;8.60;99.90
13591;DHT22;6866;50.778;7.206;2023-12-20T00:17:55;8.50;99.90
13591;DHT22;6866;50.778;7.206;2023-12-20T00:20:21;8.50;99.90
13591;DHT22;6866;50.778;7.206;2023-12-20T00:22:46;8.60;99.90
13591;DHT22;6866;50.778;7.206;2023-12-20T00:25:12;8.60;99.90
13591;DHT22;6866;50.778;7.206;2023-12-20T00:27:37;8.60;99.90
13591;DHT22;6866;50.778;7.206;2023-12-20T00:30:03;8.60;99.90
13591;DHT22;6866;50.778;7.206;2023-12-20T00:32:29;8.70;99.90
13591;DHT22;6866;50.778;7.206;2023-12-20T00:34:54;8.70;99.90
13591;DHT22;6866;50.778;7.206;2023-12-20T00:37:20;8.70;99.90
13591;DHT22;6866;50.778;7.206;2023-12-20T00:39:45;8.60;99.90
13591;DHT22;6866;50.778;7.206;2023-12-20T00:42:11;8.70;99.90
13591;DHT22;6866;50.778;7.206;2023-12-20T00:44:36;8.70;99.90
13591;DHT22;6866;50.778;7.206;2023-12-20T00:47:02;8.70;99.90
13591;DHT22;6866;50.778;7.206;2023-12-20T00:49:27;8.70;99.90
13591;DHT22;6866;50.778;7.206;2023-12-20T00:51:53;8.70;99.90
13591;DHT22;6866;50.778;7.206;2023-12-20T00:54:18;8.70;99.90
13591;DHT22;6866;50.778;7.206;2023-12-20T00:56:44;8.70;99.90
13591;DHT22;6866;50.778;7.206;2023-12-20T00:59:09;8.70;99.90
13591;DHT22;6866;50.778;7.206;2023-12-20T01:01:36;8.70;99.90
13591;DHT22;6866;50.778;7.206;2023-12-20T01:04:01;8.70;99.90
13591;DHT22;6866;50.778;7.206;2023-12-20T01:06:27;8.70;99.90
13591;DHT22;6866;50.778;7.206;2023-12-20T01:08:52;8.70;99.90
13591;DHT22;6866;50.778;7.206;2023-12-20T01:11:18;8.70;99.90
13591;DHT22;6866;50.778;7.206;2023-12-20T01:13:43;8.70;99.90
13591;DHT22;6866;50.778;7.206;2023-12-20T01:16:10;8.60;99.90
13591;DHT22;6866;50.778;7.206;2023-12-20T01:18:36;8.60;99.90
13591;DHT22;6866;50.778;7.206;2023-12-20T01:21:05;8.70;99.90
13591;DHT22;6866;50.778;7.206;2023-12-20T01:23:31;8.60;99.90
13591;DHT22;6866;50.778;7.206;2023-12-20T01:25:57;8.60;99.90
13591;DHT22;6866;50.778;7.206;2023-12-20T01:28:25;8.60;99.90
13591;DHT22;6866;50.778;7.206;2023-12-20T01:30:50;8.60;99.90
13591;DHT22;6866;50.778;7.206;2023-12-20T01:33:16;8.60;99.90
13591;DHT22;6866;50.778;7.206;2023-12-20T01:35:41;8.60;99.90
13591;DHT22;6866;50.778;7.206;2023-12-20T01:38:07;8.60;99.90
13591;DHT22;6866;50.778;7.206;2023-12-20T01:40:33;8.60;99.90
13591;DHT22;6866;50.778;7.206;2023-12-20T01:43:04;8.70;99.90
13591;DHT22;6866;50.778;7.206;2023-12-20T01:45:31;8.60;99.90
13591;DHT22;6866;50.778;7.206;2023-12-20T01:47:57;8.60;99.90
13591;DHT22;6866;50.778;7.206;2023-12-20T01:50:24;8.60;99.90
13591;DHT22;6866;50.778;7.206;2023-12-20T01:52:50;8.50;99.90
13591;DHT22;6866;50.778;7.206;2023-12-20T01:55:19;8.60;99.90
13591;DHT22;6866;50.778;7.206;2023-12-20T01:57:46;8.60;99.90
13591;DHT22;6866;50.778;7.206;2023-12-20T02:05:23;8.50;99.90
13591;DHT22;6866;50.778;7.206;2023-12-20T02:07:49;8.40;99.90
13591;DHT22;6866;50.778;7.206;2023-12-20T02:10:15;8.50;99.90
13591;DHT22;6866;50.778;7.206;2023-12-20T02:12:41;8.40;99.90
13591;DHT22;6866;50.778;7.206;2023-12-20T02:15:07;8.40;99.90
13591;DHT22;6866;50.778;7.206;2023-12-20T02:17:33;8.30;99.90
13591;DHT22;6866;50.778;7.206;2023-12-20T02:19:59;8.30;99.90
13591;DHT22;6866;50.778;7.206;2023-12-20T02:22:24;8.30;99.90
13591;DHT22;6866;50.778;7.206;2023-12-20T02:24:50;8.20;99.90
13591;DHT22;6866;50.778;7.206;2023-12-20T02:27:17;8.20;99.90
13591;DHT22;6866;50.778;7.206;2023-12-20T02:29:43;8.20;99.90
13591;DHT22;6866;50.778;7.206;2023-12-20T02:32:09;8.10;99.90
13591;DHT22;6866;50.778;7.206;2023-12-20T02:34:34;8.00;99.90
13591;DHT22;6866;50.778;7.206;2023-12-20T02:37:00;8.00;99.90
13591;DHT22;6866;50.778;7.206;2023-12-20T02:39:25;7.90;99.90
13591;DHT22;6866;50.778;7.206;2023-12-20T02:41:51;7.90;99.90
13591;DHT22;6866;50.778;7.206;2023-12-20T02:44:16;7.80;99.90
13591;DHT22;6866;50.778;7.206;2023-12-20T02:46:42;7.70;99.90
13591;DHT22;6866;50.778;7.206;2023-12-20T02:49:07;7.70;99.90
13591;DHT22;6866;50.778;7.206;2023-12-20T02:51:33;7.60;99.90
13591;DHT22;6866;50.778;7.206;2023-12-20T02:53:58;7.60;99.90
13591;DHT22;6866;50.778;7.206;2023-12-20T02:56:24;7.50;99.90
13591;DHT22;6866;50.778;7.206;2023-12-20T02:58:49;7.40;99.90
13591;DHT22;6866;50.778;7.206;2023-12-20T03:01:15;7.40;99.90
13591;DHT22;6866;50.778;7.206;2023-12-20T03:03:40;7.30;99.90
13591;DHT22;6866;50.778;7.206;2023-12-20T03:06:06;7.40;99.90
13591;DHT22;6866;50.778;7.206;2023-12-20T03:08:31;7.30;99.90
13591;DHT22;6866;50.778;7.206;2023-12-20T03:10:59;7.30;99.90
13591;DHT22;6866;50.778;7.206;2023-12-20T03:13:24;7.30;99.90
13591;DHT22;6866;50.778;7.206;2023-12-20T03:15:50;7.30;99.90
13591;DHT22;6866;50.778;7.206;2023-12-20T03:18:15;7.30;99.90
13591;DHT22;6866;50.778;7.206;2023-12-20T03:20:41;7.30;99.90
13591;DHT22;6866;50.778;7.206;2023-12-20T03:23:07;7.30;99.90
13591;DHT22;6866;50.778;7.206;2023-12-20T03:25:32;7.30;99.90
13591;DHT22;6866;50.778;7.206;2023-12-20T03:27:59;7.40;99.90
13591;DHT22;6866;50.778;7.206;2023-12-20T03:30:24;7.40;99.90
13591;DHT22;6866;50.778;7.206;2023-12-20T03:32:50;7.40;99.90
13591;DHT22;6866;50.778;7.206;2023-12-20T03:35:15;7.50;99.90
13591;DHT22;6866;50.778;7.206;2023-12-20T03:37:41;7.50;99.90
13591;DHT22;6866;50.778;7.206;2023-12-20T03:40:07;7.60;99.90
13591;DHT22;6866;50.778;7.206;2023-12-20T03:42:32;7.60;99.90
13591;DHT22;6866;50.778;7.206;2023-12-20T03:44:58;7.70;99.90
13591;DHT22;6866;50.778;7.206;2023-12-20T03:47:23;7.70;99.90
13591;DHT22;6866;50.778;7.206;2023-12-20T03:49:49;7.60;99.90
13591;DHT22;6866;50.778;7.206;2023-12-20T03:52:14;7.60;99.90
13591;DHT22;6866;50.778;7.206;2023-12-20T03:54:40;7.60;99.90
13591;DHT22;6866;50.778;7.206;2023-12-20T03:57:07;7.70;99.90
13591;DHT22;6866;50.778;7.206;2023-12-20T03:59:37;7.60;99.90
13591;DHT22;6866;50.778;7.206;2023-12-20T04:02:03;7.70;99.90
13591;DHT22;6866;50.778;7.206;2023-12-20T04:04:29;7.60;99.90
13591;DHT22;6866;50.778;7.206;2023-12-20T04:06:54;7.60;99.90
13591;DHT22;6866;50.778;7.206;2023-12-20T04:09:20;7.60;99.90
13591;DHT22;6866;50.778;7.206;2023-12-20T04:11:45;7.60;99.90
13591;DHT22;6866;50.778;7.206;2023-12-20T04:14:11;7.60;99.90
13591;DHT22;6866;50.778;7.206;2023-12-20T04:16:36;7.70;99.90
13591;DHT22;6866;50.778;7.206;2023-12-20T04:19:02;7.70;99.90
13591;DHT22;6866;50.778;7.206;2023-12-20T04:21:28;7.70;99.90
13591;DHT22;6866;50.778;7.206;2023-12-20T04:23:53;7.70;99.90
13591;DHT22;6866;50.778;7.206;2023-12-20T04:26:19;7.70;99.90
13591;DHT22;6866;50.778;7.206;2023-12-20T04:28:44;7.70;99.90
13591;DHT22;6866;50.778;7.206;2023-12-20T04:31:10;7.70;99.90
13591;DHT22;6866;50.778;7.206;2023-12-20T04:33:35;7.70;99.90
13591;DHT22;6866;50.778;7.206;2023-12-20T04:36:01;7.80;99.90
13591;DHT22;6866;50.778;7.206;2023-12-20T04:38:26;7.70;99.90
13591;DHT22;6866;50.778;7.206;2023-12-20T04:40:52;7.70;99.90
13591;DHT22;6866;50.778;7.206;2023-12-20T04:43:17;7.70;99.90
13591;DHT22;6866;50.778;7.206;2023-12-20T04:45:43;7.70;99.90
13591;DHT22;6866;50.778;7.206;2023-12-20T04:48:08;7.70;99.90
13591;DHT22;6866;50.778;7.206;2023-12-20T04:50:34;7.70;99.90
13591;DHT22;6866;50.778;7.206;2023-12-20T04:52:59;7.70;99.90
13591;DHT22;6866;50.778;7.206;2023-12-20T04:55:25;7.80;99.90
13591;DHT22;6866;50.778;7.206;2023-12-20T04:57:50;7.70;99.90
13591;DHT22;6866;50.778;7.206;2023-12-20T05:00:16;7.70;99.90
13591;DHT22;6866;50.778;7.206;2023-12-20T05:02:42;7.70;99.90
13591;DHT22;6866;50.778;7.206;2023-12-20T05:05:08;7.70;99.90
13591;DHT22;6866;50.778;7.206;2023-12-20T05:07:33;7.60;99.90
13591;DHT22;6866;50.778;7.206;2023-12-20T05:09:59;7.60;99.90
13591;DHT22;6866;50.778;7.206;2023-12-20T05:12:24;7.60;99.90
13591;DHT22;6866;50.778;7.206;2023-12-20T05:14:51;7.70;99.90
13591;DHT22;6866;50.778;7.206;2023-12-20T05:17:17;7.50;99.90
13591;DHT22;6866;50.778;7.206;2023-12-20T05:19:42;7.60;99.90
13591;DHT22;6866;50.778;7.206;2023-12-20T05:22:08;7.60;99.90
13591;DHT22;6866;50.778;7.206;2023-12-20T05:24:34;7.50;99.90
13591;DHT22;6866;50.778;7.206;2023-12-20T05:26:59;7.40;99.90
13591;DHT22;6866;50.778;7.206;2023-12-20T05:29:25;7.50;99.90
13591;DHT22;6866;50.778;7.206;2023-12-20T05:31:50;7.50;99.90
13591;DHT22;6866;50.778;7.206;2023-12-20T05:34:16;7.50;99.90
13591;DHT22;6866;50.778;7.206;2023-12-20T05:36:41;7.50;99.90
13591;DHT22;6866;50.778;7.206;2023-12-20T05:39:07;7.50;99.90
13591;DHT22;6866;50.778;7.206;2023-12-20T05:41:33;7.50;99.90
13591;DHT22;6866;50.778;7.206;2023-12-20T05:43:58;7.50;99.90
13591;DHT22;6866;50.778;7.206;2023-12-20T05:46:24;7.60;99.90
13591;DHT22;6866;50.778;7.206;2023-12-20T05:48:50;7.60;99.90
13591;DHT22;6866;50.778;7.206;2023-12-20T05:51:17;7.50;99.90
13591;DHT22;6866;50.778;7.206;2023-12-20T05:53:43;7.50;99.90
13591;DHT22;6866;50.778;7.206;2023-12-20T05:56:09;7.50;99.90
13591;DHT22;6866;50.778;7.206;2023-12-20T05:58:35;7.50;99.90
13591;DHT22;6866;50.778;7.206;2023-12-20T06:01:00;7.50;99.90
13591;DHT22;6866;50.778;7.206;2023-12-20T06:03:26;7.50;99.90
13591;DHT22;6866;50.778;7.206;2023-12-20T06:05:51;7.50;99.90
13591;DHT22;6866;50.778;7.206;2023-12-20T06:08:17;7.50;99.90
13591;DHT22;6866;50.778;7.206;2023-12-20T06:10:42;7.40;99.90
13591;DHT22;6866;50.778;7.206;2023-12-20T06:13:08;7.50;99.90
13591;DHT22;6866;50.778;7.206;2023-12-20T06:15:33;7.50;99.90
13591;DHT22;6866;50.778;7.206;2023-12-20T06:17:59;7.50;99.90
13591;DHT22;6866;50.778;7.206;2023-12-20T06:20:24;7.60;99.90
13591;DHT22;6866;50.778;7.206;2023-12-20T06:22:50;7.60;99.90
13591;DHT22;6866;50.778;7.206;2023-12-20T06:25:16;7.60;99.90
13591;DHT22;6866;50.778;7.206;2023-12-20T06:27:42;7.60;99.90
13591;DHT22;6866;50.778;7.206;2023-12-20T06:30:07;7.60;99.90
13591;DHT22;6866;50.778;7.206;2023-12-20T06:32:36;7.50;99.90
13591;DHT22;6866;50.778;7.206;2023-12-20T06:35:01;7.40;99.90
13591;DHT22;6866;50.778;7.206;2023-12-20T06:37:27;7.50;99.90
13591;DHT22;6866;50.778;7.206;2023-12-20T06:39:52;7.50;99.90
13591;DHT22;6866;50.778;7.206;2023-12-20T06:42:18;7.50;99.90
13591;DHT22;6866;50.778;7.206;2023-12-20T06:44:43;7.50;99.90
13591;DHT22;6866;50.778;7.206;2023-12-20T06:47:09;7.50;99.90
13591;DHT22;6866;50.778;7.206;2023-12-20T06:49:35;7.50;99.90
13591;DHT22;6866;50.778;7.206;2023-12-20T06:52:00;7.50;99.90
13591;DHT22;6866;50.778;7.206;2023-12-20T06:54:26;7.50;99.90
13591;DHT22;6866;50.778;7.206;2023-12-20T06:56:51;7.50;99.90
13591;DHT22;6866;50.778;7.206;2023-12-20T06:59:17;7.60;99.90
13591;DHT22;6866;50.778;7.206;2023-12-20T07:01:42;7.60;99.90
13591;DHT22;6866;50.778;7.206;2023-12-20T07:04:12;7.60;99.90
13591;DHT22;6866;50.778;7.206;2023-12-20T07:06:38;7.60;99.90
13591;DHT22;6866;50.778;7.206;2023-12-20T07:09:03;7.60;99.90
13591;DHT22;6866;50.778;7.206;2023-12-20T07:11:29;7.70;99.90
13591;DHT22;6866;50.778;7.206;2023-12-20T07:13:54;7.70;99.90
13591;DHT22;6866;50.778;7.206;2023-12-20T07:16:20;7.70;99.90
13591;DHT22;6866;50.778;7.206;2023-12-20T07:18:46;7.70;99.90
13591;DHT22;6866;50.778;7.206;2023-12-20T07:21:12;7.70;99.90
13591;DHT22;6866;50.778;7.206;2023-12-20T07:23:37;7.70;99.90
13591;DHT22;6866;50.778;7.206;2023-12-20T07:26:03;7.60;99.90
13591;DHT22;6866;50.778;7.206;2023-12-20T07:28:29;7.60;99.90
13591;DHT22;6866;50.778;7.206;2023-12-20T07:30:55;7.60;99.90
13591;DHT22;6866;50.778;7.206;2023-12-20T07:33:20;7.60;99.90
13591;DHT22;6866;50.778;7.206;2023-12-20T07:35:47;7.60;99.90
13591;DHT22;6866;50.778;7.206;2023-12-20T07:38:12;7.60;99.90
13591;DHT22;6866;50.778;7.206;2023-12-20T07:40:38;7.70;99.90
13591;DHT22;6866;50.778;7.206;2023-12-20T07:43:04;7.70;99.90
13591;DHT22;6866;50.778;7.206;2023-12-20T07:45:30;7.70;99.90
13591;DHT22;6866;50.778;7.206;2023-12-20T07:47:55;7.70;99.90
13591;DHT22;6866;50.778;7.206;2023-12-20T07:50:21;7.70;99.90
13591;DHT22;6866;50.778;7.206;2023-12-20T07:52:46;7.80;99.90
13591;DHT22;6866;50.778;7.206;2023-12-20T07:55:12;7.80;99.90
13591;DHT22;6866;50.778;7.206;2023-12-20T07:57:37;7.80;99.90
13591;DHT22;6866;50.778;7.206;2023-12-20T08:00:03;7.80;99.90
13591;DHT22;6866;50.778;7.206;2023-12-20T08:02:29;7.80;99.90
13591;DHT22;6866;50.778;7.206;2023-12-20T08:04:55;7.80;99.90
13591;DHT22;6866;50.778;7.206;2023-12-20T08:07:20;7.90;99.90
13591;DHT22;6866;50.778;7.206;2023-12-20T08:09:46;7.90;99.90
13591;DHT22;6866;50.778;7.206;2023-12-20T08:12:11;7.90;99.90
13591;DHT22;6866;50.778;7.206;2023-12-20T08:14:37;7.90;99.90
13591;DHT22;6866;50.778;7.206;2023-12-20T08:17:03;7.80;99.90
13591;DHT22;6866;50.778;7.206;2023-12-20T08:19:28;7.90;99.90
13591;DHT22;6866;50.778;7.206;2023-12-20T08:21:54;7.90;99.90
13591;DHT22;6866;50.778;7.206;2023-12-20T08:24:19;7.80;99.90
13591;DHT22;6866;50.778;7.206;2023-12-20T08:26:45;7.90;99.90
13591;DHT22;6866;50.778;7.206;2023-12-20T08:29:13;7.90;99.90
13591;DHT22;6866;50.778;7.206;2023-12-20T08:31:38;7.90;99.90
13591;DHT22;6866;50.778;7.206;2023-12-20T08:34:04;7.90;99.90
13591;DHT22;6866;50.778;7.206;2023-12-20T08:36:30;7.90;99.90
13591;DHT22;6866;50.778;7.206;2023-12-20T08:38:55;8.00;99.90
13591;DHT22;6866;50.778;7.206;2023-12-20T08:41:21;7.90;99.90
13591;DHT22;6866;50.778;7.206;2023-12-20T08:43:46;8.00;99.90
13591;DHT22;6866;50.778;7.206;2023-12-20T08:46:13;8.00;99.90
13591;DHT22;6866;50.778;7.206;2023-12-20T08:48:38;8.00;99.90
13591;DHT22;6866;50.778;7.206;2023-12-20T08:51:04;8.10;99.90
13591;DHT22;6866;50.778;7.206;2023-12-20T08:53:32;8.20;99.90
13591;DHT22;6866;50.778;7.206;2023-12-20T08:55:58;8.20;99.90
13591;DHT22;6866;50.778;7.206;2023-12-20T08:58:26;8.30;99.90
13591;DHT22;6866;50.778;7.206;2023-12-20T09:00:52;8.40;99.90
13591;DHT22;6866;50.778;7.206;2023-12-20T09:03:17;8.60;99.90
13591;DHT22;6866;50.778;7.206;2023-12-20T09:05:43;8.60;99.90
13591;DHT22;6866;50.778;7.206;2023-12-20T09:08:08;8.50;99.90
13591;DHT22;6866;50.778;7.206;2023-12-20T09:10:36;8.50;99.90
13591;DHT22;6866;50.778;7.206;2023-12-20T09:13:02;8.40;99.90
13591;DHT22;6866;50.778;7.206;2023-12-20T09:15:28;8.40;99.90
13591;DHT22;6866;50.778;7.206;2023-12-20T09:17:55;8.40;99.90
13591;DHT22;6866;50.778;7.206;2023-12-20T09:20:21;8.40;99.90
13591;DHT22;6866;50.778;7.206;2023-12-20T09:22:48;8.40;99.90
13591;DHT22;6866;50.778;7.206;2023-12-20T09:25:14;8.40;99.90
13591;DHT22;6866;50.778;7.206;2023-12-20T09:27:41;8.30;99.90
13591;DHT22;6866;50.778;7.206;2023-12-20T09:30:08;8.30;99.90
13591;DHT22;6866;50.778;7.206;2023-12-20T09:32:34;8.30;99.90
13591;DHT22;6866;50.778;7.206;2023-12-20T09:34:59;8.30;99.90
13591;DHT22;6866;50.778;7.206;2023-12-20T09:37:28;8.30;99.90
13591;DHT22;6866;50.778;7.206;2023-12-20T09:39:54;8.30;99.90
13591;DHT22;6866;50.778;7.206;2023-12-20T09:45:04;8.30;99.90
13591;DHT22;6866;50.778;7.206;2023-12-20T09:47:33;8.30;99.90
13591;DHT22;6866;50.778;7.206;2023-12-20T09:49:59;8.30;99.90
13591;DHT22;6866;50.778;7.206;2023-12-20T09:52:25;8.30;99.90
13591;DHT22;6866;50.778;7.206;2023-12-20T09:54:52;8.30;99.90
13591;DHT22;6866;50.778;7.206;2023-12-20T09:57:18;8.30;99.90
13591;DHT22;6866;50.778;7.206;2023-12-20T09:59:44;8.30;99.90
13591;DHT22;6866;50.778;7.206;2023-12-20T10:02:13;8.30;99.90
13591;DHT22;6866;50.778;7.206;2023-12-20T10:04:46;8.40;99.90
13591;DHT22;6866;50.778;7.206;2023-12-20T10:07:11;8.40;99.90
13591;DHT22;6866;50.778;7.206;2023-12-20T10:09:38;8.40;99.90
13591;DHT22;6866;50.778;7.206;2023-12-20T10:12:04;8.40;99.90
13591;DHT22;6866;50.778;7.206;2023-12-20T10:14:30;8.40;99.90
13591;DHT22;6866;50.778;7.206;2023-12-20T10:17:04;8.40;99.90
13591;DHT22;6866;50.778;7.206;2023-12-20T10:19:31;8.40;99.90
13591;DHT22;6866;50.778;7.206;2023-12-20T10:21:59;8.50;99.90
13591;DHT22;6866;50.778;7.206;2023-12-20T10:24:25;8.60;99.90
13591;DHT22;6866;50.778;7.206;2023-12-20T10:27:06;8.40;99.90
13591;DHT22;6866;50.778;7.206;2023-12-20T10:29:38;8.50;99.90
13591;DHT22;6866;50.778;7.206;2023-12-20T10:32:36;8.40;99.90
13591;DHT22;6866;50.778;7.206;2023-12-20T10:35:02;8.40;99.90
13591;DHT22;6866;50.778;7.206;2023-12-20T10:37:28;8.50;99.90
13591;DHT22;6866;50.778;7.206;2023-12-20T10:39:54;8.40;99.90
13591;DHT22;6866;50.778;7.206;2023-12-20T10:42:26;8.30;99.90
13591;DHT22;6866;50.778;7.206;2023-12-20T10:44:52;8.40;99.90
13591;DHT22;6866;50.778;7.206;2023-12-20T10:47:20;8.40;99.90
13591;DHT22;6866;50.778;7.206;2023-12-20T10:49:45;8.50;99.90
13591;DHT22;6866;50.778;7.206;2023-12-20T10:52:12;8.50;99.90
13591;DHT22;6866;50.778;7.206;2023-12-20T10:54:41;8.50;99.90
13591;DHT22;6866;50.778;7.206;2023-12-20T10:57:06;8.60;99.90
13591;DHT22;6866;50.778;7.206;2023-12-20T10:59:34;8.60;99.90
13591;DHT22;6866;50.778;7.206;2023-12-20T11:02:02;8.60;99.90
13591;DHT22;6866;50.778;7.206;2023-12-20T11:04:38;8.60;99.90
13591;DHT22;6866;50.778;7.206;2023-12-20T11:07:29;8.60;99.90
13591;DHT22;6866;50.778;7.206;2023-12-20T11:10:00;8.70;99.90
13591;DHT22;6866;50.778;7.206;2023-12-20T11:12:37;8.60;99.90
13591;DHT22;6866;50.778;7.206;2023-12-20T11:15:06;8.60;99.90
13591;DHT22;6866;50.778;7.206;2023-12-20T11:17:33;8.60;99.90
13591;DHT22;6866;50.778;7.206;2023-12-20T11:22:25;8.60;99.90
13591;DHT22;6866;50.778;7.206;2023-12-20T11:24:52;8.50;99.90
13591;DHT22;6866;50.778;7.206;2023-12-20T11:27:19;8.50;99.90
13591;DHT22;6866;50.778;7.206;2023-12-20T11:29:51;8.60;99.90
13591;DHT22;6866;50.778;7.206;2023-12-20T11:34:59;8.70;99.90
13591;DHT22;6866;50.778;7.206;2023-12-20T11:37:29;8.70;99.90
13591;DHT22;6866;50.778;7.206;2023-12-20T11:39:56;8.70;99.90
13591;DHT22;6866;50.778;7.206;2023-12-20T11:42:25;8.70;99.90
13591;DHT22;6866;50.778;7.206;2023-12-20T11:44:50;8.70;99.90
13591;DHT22;6866;50.778;7.206;2023-12-20T11:47:16;8.60;99.90
13591;DHT22;6866;50.778;7.206;2023-12-20T11:49:46;8.70;99.90
13591;DHT22;6866;50.778;7.206;2023-12-20T11:52:12;8.70;99.90
13591;DHT22;6866;50.778;7.206;2023-12-20T11:54:38;8.70;99.90
13591;DHT22;6866;50.778;7.206;2023-12-20T11:57:04;8.70;99.90
13591;DHT22;6866;50.778;7.206;2023-12-20T11:59:31;8.70;99.90
13591;DHT22;6866;50.778;7.206;2023-12-20T12:01:56;8.70;99.90
13591;DHT22;6866;50.778;7.206;2023-12-20T12:04:26;8.70;99.90
13591;DHT22;6866;50.778;7.206;2023-12-20T12:06:52;8.80;99.90
13591;DHT22;6866;50.778;7.206;2023-12-20T12:09:17;8.80;99.90
13591;DHT22;6866;50.778;7.206;2023-12-20T12:11:43;8.80;99.90
13591;DHT22;6866;50.778;7.206;2023-12-20T12:14:09;8.80;99.90
13591;DHT22;6866;50.778;7.206;2023-12-20T12:16:35;8.80;99.90
13591;DHT22;6866;50.778;7.206;2023-12-20T12:19:00;8.90;99.90
13591;DHT22;6866;50.778;7.206;2023-12-20T12:21:26;8.80;99.90
13591;DHT22;6866;50.778;7.206;2023-12-20T12:23:51;8.80;99.90
13591;DHT22;6866;50.778;7.206;2023-12-20T12:26:18;8.80;99.90
13591;DHT22;6866;50.778;7.206;2023-12-20T12:28:44;8.80;99.90
13591;DHT22;6866;50.778;7.206;2023-12-20T12:31:14;8.80;99.90
13591;DHT22;6866;50.778;7.206;2023-12-20T12:33:42;8.80;99.90
13591;DHT22;6866;50.778;7.206;2023-12-20T12:36:10;8.80;99.90
13591;DHT22;6866;50.778;7.206;2023-12-20T12:38:36;8.80;99.90
13591;DHT22;6866;50.778;7.206;2023-12-20T12:41:02;8.80;99.90
13591;DHT22;6866;50.778;7.206;2023-12-20T12:43:27;8.80;99.90
13591;DHT22;6866;50.778;7.206;2023-12-20T12:45:53;8.80;99.90
13591;DHT22;6866;50.778;7.206;2023-12-20T12:48:19;8.80;99.90
13591;DHT22;6866;50.778;7.206;2023-12-20T12:50:46;8.80;99.90
13591;DHT22;6866;50.778;7.206;2023-12-20T12:53:11;8.80;99.90
13591;DHT22;6866;50.778;7.206;2023-12-20T12:55:37;8.80;99.90
13591;DHT22;6866;50.778;7.206;2023-12-20T12:58:02;8.90;99.90
13591;DHT22;6866;50.778;7.206;2023-12-20T13:00:28;8.80;99.90
13591;DHT22;6866;50.778;7.206;2023-12-20T13:02:54;8.80;99.90
13591;DHT22;6866;50.778;7.206;2023-12-20T13:05:19;8.80;99.90
13591;DHT22;6866;50.778;7.206;2023-12-20T13:07:45;8.80;99.90
13591;DHT22;6866;50.778;7.206;2023-12-20T13:10:11;8.90;99.90
13591;DHT22;6866;50.778;7.206;2023-12-20T13:12:36;8.90;99.90
13591;DHT22;6866;50.778;7.206;2023-12-20T13:15:02;8.90;99.90
13591;DHT22;6866;50.778;7.206;2023-12-20T13:17:29;8.90;99.90
13591;DHT22;6866;50.778;7.206;2023-12-20T13:19:55;8.90;99.90
13591;DHT22;6866;50.778;7.206;2023-12-20T13:22:20;8.90;99.90
13591;DHT22;6866;50.778;7.206;2023-12-20T13:24:46;8.80;99.90
13591;DHT22;6866;50.778;7.206;2023-12-20T13:27:11;8.90;99.90
13591;DHT22;6866;50.778;7.206;2023-12-20T13:29:37;8.90;99.90
13591;DHT22;6866;50.778;7.206;2023-12-20T13:32:02;8.90;99.90
13591;DHT22;6866;50.778;7.206;2023-12-20T13:34:29;8.90;99.90
13591;DHT22;6866;50.778;7.206;2023-12-20T13:36:55;8.80;99.90
13591;DHT22;6866;50.778;7.206;2023-12-20T13:39:21;8.80;99.90
13591;DHT22;6866;50.778;7.206;2023-12-20T13:41:46;8.80;99.90
13591;DHT22;6866;50.778;7.206;2023-12-20T13:44:13;8.70;99.90
13591;DHT22;6866;50.778;7.206;2023-12-20T13:46:39;8.60;99.90
13591;DHT22;6866;50.778;7.206;2023-12-20T13:49:05;8.50;99.90
13591;DHT22;6866;50.778;7.206;2023-12-20T13:51:31;8.50;99.90
13591;DHT22;6866;50.778;7.206;2023-12-20T13:53:56;8.60;99.90
13591;DHT22;6866;50.778;7.206;2023-12-20T13:56:23;8.50;99.90
13591;DHT22;6866;50.778;7.206;2023-12-20T13:58:49;8.60;99.90
13591;DHT22;6866;50.778;7.206;2023-12-20T14:01:16;8.50;99.90
13591;DHT22;6866;50.778;7.206;2023-12-20T14:03:41;8.60;99.90
13591;DHT22;6866;50.778;7.206;2023-12-20T14:06:07;8.60;99.90
13591;DHT22;6866;50.778;7.206;2023-12-20T14:08:32;8.60;99.90
13591;DHT22;6866;50.778;7.206;2023-12-20T14:10:58;8.50;99.90
13591;DHT22;6866;50.778;7.206;2023-12-20T14:13:24;8.60;99.90
13591;DHT22;6866;50.778;7.206;2023-12-20T14:15:49;8.60;99.90
13591;DHT22;6866;50.778;7.206;2023-12-20T14:18:15;8.60;99.90
13591;DHT22;6866;50.778;7.206;2023-12-20T14:20:41;8.60;99.90
13591;DHT22;6866;50.778;7.206;2023-12-20T14:23:08;8.50;99.90
13591;DHT22;6866;50.778;7.206;2023-12-20T14:25:36;8.60;99.90
13591;DHT22;6866;50.778;7.206;2023-12-20T14:28:05;8.50;99.90
13591;DHT22;6866;50.778;7.206;2023-12-20T14:30:30;8.50;99.90
13591;DHT22;6866;50.778;7.206;2023-12-20T14:32:56;8.60;99.90
13591;DHT22;6866;50.778;7.206;2023-12-20T14:35:22;8.60;99.90
13591;DHT22;6866;50.778;7.206;2023-12-20T14:37:47;8.50;99.90
13591;DHT22;6866;50.778;7.206;2023-12-20T14:40:13;8.50;99.90
13591;DHT22;6866;50.778;7.206;2023-12-20T14:42:45;8.50;99.90
13591;DHT22;6866;50.778;7.206;2023-12-20T14:45:11;8.60;99.90
13591;DHT22;6866;50.778;7.206;2023-12-20T14:47:36;8.60;99.90
13591;DHT22;6866;50.778;7.206;2023-12-20T14:50:06;8.60;99.90
13591;DHT22;6866;50.778;7.206;2023-12-20T14:52:32;8.60;99.90
13591;DHT22;6866;50.778;7.206;2023-12-20T14:55:02;8.50;99.90
13591;DHT22;6866;50.778;7.206;2023-12-20T14:57:29;8.50;99.90
13591;DHT22;6866;50.778;7.206;2023-12-20T14:59:55;8.60;99.90
13591;DHT22;6866;50.778;7.206;2023-12-20T15:02:21;8.50;99.90
13591;DHT22;6866;50.778;7.206;2023-12-20T15:04:46;8.50;99.90
13591;DHT22;6866;50.778;7.206;2023-12-20T15:07:12;8.60;99.90
13591;DHT22;6866;50.778;7.206;2023-12-20T15:09:38;8.60;99.90
13591;DHT22;6866;50.778;7.206;2023-12-20T15:12:04;8.60;99.90
13591;DHT22;6866;50.778;7.206;2023-12-20T15:14:29;8.50;99.90
13591;DHT22;6866;50.778;7.206;2023-12-20T15:16:55;8.60;99.90
13591;DHT22;6866;50.778;7.206;2023-12-20T15:19:21;8.50;99.90
13591;DHT22;6866;50.778;7.206;2023-12-20T15:21:47;8.60;99.90
13591;DHT22;6866;50.778;7.206;2023-12-20T15:24:12;8.50;99.90
13591;DHT22;6866;50.778;7.206;2023-12-20T15:26:43;8.60;99.90
13591;DHT22;6866;50.778;7.206;2023-12-20T15:29:09;8.60;99.90
13591;DHT22;6866;50.778;7.206;2023-12-20T15:31:47;8.50;99.90
13591;DHT22;6866;50.778;7.206;2023-12-20T15:34:13;8.60;99.90
13591;DHT22;6866;50.778;7.206;2023-12-20T15:36:39;8.60;99.90
13591;DHT22;6866;50.778;7.206;2023-12-20T15:39:06;8.60;99.90
13591;DHT22;6866;50.778;7.206;2023-12-20T15:41:33;8.60;99.90
13591;DHT22;6866;50.778;7.206;2023-12-20T15:43:59;8.70;99.90
13591;DHT22;6866;50.778;7.206;2023-12-20T15:46:25;8.70;99.90
13591;DHT22;6866;50.778;7.206;2023-12-20T15:48:50;8.60;99.90
13591;DHT22;6866;50.778;7.206;2023-12-20T15:51:20;8.60;99.90
13591;DHT22;6866;50.778;7.206;2023-12-20T15:53:46;8.60;99.90
13591;DHT22;6866;50.778;7.206;2023-12-20T15:56:12;8.70;99.90
13591;DHT22;6866;50.778;7.206;2023-12-20T15:58:37;8.60;99.90
13591;DHT22;6866;50.778;7.206;2023-12-20T16:01:03;8.70;99.90
13591;DHT22;6866;50.778;7.206;2023-12-20T16:03:29;8.70;99.90
13591;DHT22;6866;50.778;7.206;2023-12-20T16:05:54;8.70;99.90
13591;DHT22;6866;50.778;7.206;2023-12-20T16:08:20;8.70;99.90